IST,Max TemperatureF,Mean TemperatureF,Min TemperatureF,Max Dew PointF,MeanDew PointF,Min DewpointF,Max Humidity, Mean Humidity, Min Humidity, Max Sea Level PressureIn, Mean Sea Level PressureIn, Min Sea Level PressureIn, Max VisibilityMiles, Mean VisibilityMiles, Min VisibilityMiles, Max Wind SpeedMPH, Mean Wind SpeedMPH, Max Gust SpeedMPH,PrecipitationIn, CloudCover, Events, WindDirDegrees
2012-7-1,61,56,50,59,52,46,100,88,72,29.87,29.80,29.71,16,6,1,17,12,,0.12,6,Rain,217
2012-7-2,67,62,57,59,57,55,100,89,68,29.77,29.72,29.68,12,6,4,16,8,,0.00,6,Rain,212
2012-7-3,64,60,55,63,58,52,100,94,82,29.77,29.67,29.62,19,6,1,16,9,,0.35,6,Rain,156
2012-7-4,64,59,54,57,54,52,94,84,63,29.71,29.62,29.59,16,7,4,13,8,,0.24,6,Rain,114
2012-7-5,69,60,50,57,54,50,100,80,56,29.84,29.81,29.74,16,6,6,12,5,,0.00,5,Rain,342
2012-7-6,68,62,55,63,58,54,100,90,55,29.86,29.82,29.77,12,6,2,13,5,,0.31,6,Rain,325
2012-7-7,69,64,59,61,58,57,100,86,63,29.83,29.77,29.71,12,6,2,16,12,26,0.04,6,Rain,346
2012-7-8,61,58,53,57,53,50,94,85,73,29.92,29.86,29.83,12,6,5,15,11,,0.00,6,Rain,336
2012-7-9,62,56,51,55,51,48,94,85,72,29.98,29.91,29.89,19,7,2,18,10,,0.02,6,Rain,320
2012-7-10,63,56,50,55,51,45,94,83,68,30.00,29.96,29.95,19,7,6,20,11,,0.00,6,Rain,289
2012-7-11,61,56,51,52,48,45,94,78,51,29.98,29.94,29.92,16,6,4,18,8,,0.12,4,Rain,280
2012-7-12,57,52,48,55,51,46,100,93,80,29.96,29.76,29.62,19,5,2,16,7,,0.12,6,Rain,86
2012-7-13,62,56,51,55,52,50,100,87,68,29.68,29.61,29.59,19,6,2,15,8,,0.00,6,Rain,338
2012-7-14,60,56,51,50,47,45,88,75,55,29.95,29.82,29.68,16,6,6,17,10,,0.00,6,Rain,306
2012-7-15,64,56,49,55,51,45,94,81,60,30.01,29.99,29.95,16,6,4,16,8,,0.01,6,Rain,234
2012-7-16,61,58,55,61,57,54,100,95,82,30.15,30.00,29.89,12,4,2,23,13,,0.20,6,Rain,217
2012-7-17,69,62,56,63,59,55,100,91,78,30.18,30.11,29.98,10,6,1,28,12,,0.02,6,Rain,216
2012-7-18,64,60,55,57,57,54,100,91,69,29.99,29.89,29.86,19,6,2,23,13,,0.08,6,Rain,262
2012-7-19,63,58,54,55,51,46,100,78,52,30.01,29.95,29.86,16,6,6,14,8,,0.00,6,Rain,302
2012-7-20,63,56,48,50,47,41,94,72,38,30.21,30.10,30.01,19,6,6,9,6,,0.00,6,,315
2012-7-21,69,58,47,54,50,46,94,72,39,30.23,30.20,30.18,12,6,6,13,5,,0.00,4,,187
2012-7-22,72,64,55,63,59,52,94,83,71,30.22,30.10,30.04,19,7,6,20,13,,0.08,5,Rain,167
2012-7-23,68,64,59,66,63,59,100,95,86,30.06,30.00,29.95,16,5,2,17,10,,0.12,6,Rain,214
2012-7-24,66,62,57,63,58,55,100,94,72,30.09,30.02,29.98,19,5,1,15,5,,0.51,6,Rain,350
2012-7-25,65,60,55,59,57,55,100,89,77,30.15,30.13,30.09,19,7,6,11,7,,0.00,7,Rain,9
2012-7-26,68,61,54,61,55,48,97,81,52,30.17,30.12,30.09,12,6,5,17,6,,0.00,5,Rain,296
2012-7-27,64,58,53,55,51,48,94,76,57,30.12,30.07,30.04,19,7,4,21,11,,0.00,3,,284
2012-7-28,63,57,51,52,49,45,94,78,55,30.01,29.93,29.89,16,6,6,21,10,,0.01,4,Rain,278
2012-7-29,61,55,49,52,48,45,94,76,55,29.98,29.92,29.89,16,6,5,23,10,,0.08,4,Rain,273
2012-7-30,62,56,50,54,50,46,100,81,56,29.99,29.94,29.86,19,7,6,13,7,,0.00,5,Rain,199
2012-7-31,64,60,55,61,57,52,100,94,83,29.86,29.70,29.50,16,6,4,24,12,,0.28,6,Rain,140